Amherst, MA (01004)

1:38 AM EST on December 04, 2016 (GMT -0500)
Amherst College | | Change Station

Elev 348 ft 42.37 °N, 72.52 °W | Updated 5 minutes ago

Overcast
Overcast
32.9 °F
Feels Like 33 °F
N
0.7
Wind Variable Wind from North

Today
High -- | Low -- °F
--% Chance of Precip.
Yesterday
High -- | Low -- °F
Precip. -- in
Pressure 30.14 in
Visibility 10.0 miles
Clouds Overcast 4400 ft
Windchill 33 °F
Dew Point 23 °F
Humidity 67%
Rainfall 0.00 in
Snow Depth Not available.
7:03 AM 4:17 PM
Waxing Crescent, 20% visible
METAR KCEF 040558Z AUTO 30009KT 10SM OVC044 02/M06 A3011 RMK AO2 SLP204 T00151062 10035 21009 52016 $
Pressure 30.14 in
Visibility 10.0 miles
Clouds Overcast 4400 ft
Windchill 33 °F
Dew Point 23 °F
Humidity 67%
Rainfall 0.00 in
Snow Depth Not available.
7:03 AM 4:17 PM
Waxing Crescent, 20% visible
METAR KCEF 040558Z AUTO 30009KT 10SM OVC044 02/M06 A3011 RMK AO2 SLP204 T00151062 10035 21009 52016 $

10-Day Weather Forecast

Almanac

Astronomy

Dec. 04, 2016 Rise Set
Actual Time
Civil Twilight
Nautical Twilight
Astronomical Twilight
Moon
Length of Visible Light
Length of Day
Tomorrow will be .
, % of the Moon is Illuminated

Today's Extremes

State Highs State Lows

Community

WunderPhotos

Upload Photos

1,955,588 photos uploaded!

WunderBlog® & News

Nearby

Air Quality

  Air Quality AQ Index Pollutant
Not available.

Snow Depth

Station Depth Elevation

Earthquake Activity

City Distance Mag. Time & Date
Minimum magnitude displayed is 2.5.

Coastal Water Temperatures

Place Temperature

Stations

Nearby Weather Stations

Station Location Temp. Windchill Dew Point Humidity Wind Precip. Elev Updated Type
                   

Watches & Warnings

There are currently no watches in effect.